Da Nang International Airport
VVDN : now visible

Airfield :











YOU CAN JOIN US ON...

 
LOGIN :

Register | Disclaimer

   EN    FR    IT 

 









Legend :    VFR   Marginal VFR   IFR   Intensive IFR   Very Intensive IFR
Visi :
Ceiling :
>= 8 km
>= 3000ft
5 to 8 km
1000 to 3000 ft
1500m to 5 km
500 to 1000 ft
800 to 1500m
200 to 500 ft
< 800m
< 200 ft
Symbols :   Thunderstorms  Fog  Heavy snow  Heavy precipitations  Wind > 20 kt






- Airport Elevation : 33 ft
- IATA code : DAD


VVDN - Da Nang International

CURRENT METAR :
  • 140730Z 35006KT 7000 SCT012 BKN050 25/21 Q1017 NOSIG

EXPIRED METARs :
  • 140700Z 33003KT 270V360 7000 SCT012 BKN050 26/21 Q1017 NOSIG
  • 140630Z 35003KT 310V060 7000 SCT012 BKN050 26/21 Q1018 NOSIG
  • 140600Z 33004KT 7000 SCT012 BKN050 26/21 Q1018 NOSIG
  • 140530Z 35004KT 7000 SCT012 BKN050 26/21 Q1018 NOSIG
  • 140500Z 35003KT 270V040 7000 SCT012 BKN050 27/21 Q1019 NOSIG

TAF TAF VVDN
Valid from the 14 at 06:00 until the 15 at 06:00 UTC


140500Z 1406/1506 07007KT 6000 SCT013 BKN050
TEMPO 1409/1414 4000 RA BR
TEMPO 1420/1501 3000 RA BR



MET'MAP, your aeronautical weather chart ! - Copyright ORBIFLY December 2007 - Disclaimer

ORBIFLY MET'MAP TEAM :

Programming & Development : Alexandra Zaïnal
Concept & original design : Baudouin d'Aumeries
Assistance for programming : Marc-Olivier Méhu
Technical & hardware support : Manuel Goepfert

Contact : metmap@orbifly.com




SOURCES & CREDITS :

   NOAA       Earth
Advisory